sensor_id;sensor_type;location;lat;lon;timestamp;temperature;humidity
3268;DHT22;1646;52.450;13.326;2023-05-02T00:02:33;16.00;70.40
3268;DHT22;1646;52.450;13.326;2023-05-02T00:07:32;16.00;71.40
3268;DHT22;1646;52.450;13.326;2023-05-02T00:12:30;15.90;70.20
3268;DHT22;1646;52.450;13.326;2023-05-02T00:17:30;15.90;70.90
3268;DHT22;1646;52.450;13.326;2023-05-02T00:22:28;15.90;70.10
3268;DHT22;1646;52.450;13.326;2023-05-02T00:27:28;15.80;70.40
3268;DHT22;1646;52.450;13.326;2023-05-02T00:32:27;15.80;70.80
3268;DHT22;1646;52.450;13.326;2023-05-02T00:37:27;15.70;71.60
3268;DHT22;1646;52.450;13.326;2023-05-02T00:42:25;15.60;71.40
3268;DHT22;1646;52.450;13.326;2023-05-02T00:47:25;15.50;71.70
3268;DHT22;1646;52.450;13.326;2023-05-02T00:52:24;15.40;72.00
3268;DHT22;1646;52.450;13.326;2023-05-02T00:57:24;15.30;72.60
3268;DHT22;1646;52.450;13.326;2023-05-02T01:02:31;15.20;74.20
3268;DHT22;1646;52.450;13.326;2023-05-02T01:08:02;15.30;73.60
3268;DHT22;1646;52.450;13.326;2023-05-02T01:13:07;15.20;73.80
3268;DHT22;1646;52.450;13.326;2023-05-02T01:18:08;15.20;74.40
3268;DHT22;1646;52.450;13.326;2023-05-02T01:23:15;15.10;75.00
3268;DHT22;1646;52.450;13.326;2023-05-02T01:28:23;15.20;75.70
3268;DHT22;1646;52.450;13.326;2023-05-02T01:33:26;15.20;76.90
3268;DHT22;1646;52.450;13.326;2023-05-02T01:38:26;15.20;76.80
3268;DHT22;1646;52.450;13.326;2023-05-02T01:43:25;15.20;77.40
3268;DHT22;1646;52.450;13.326;2023-05-02T01:48:26;15.10;78.10
3268;DHT22;1646;52.450;13.326;2023-05-02T01:53:27;15.00;78.40
3268;DHT22;1646;52.450;13.326;2023-05-02T01:58:27;15.00;79.70
3268;DHT22;1646;52.450;13.326;2023-05-02T02:03:29;15.00;80.50
3268;DHT22;1646;52.450;13.326;2023-05-02T02:08:28;14.90;81.00
3268;DHT22;1646;52.450;13.326;2023-05-02T02:13:31;14.90;82.30
3268;DHT22;1646;52.450;13.326;2023-05-02T02:18:36;14.70;84.00
3268;DHT22;1646;52.450;13.326;2023-05-02T02:23:35;14.60;86.40
3268;DHT22;1646;52.450;13.326;2023-05-02T02:28:35;14.40;86.40
3268;DHT22;1646;52.450;13.326;2023-05-02T02:33:35;14.30;87.80
3268;DHT22;1646;52.450;13.326;2023-05-02T02:38:38;14.20;89.40
3268;DHT22;1646;52.450;13.326;2023-05-02T02:43:46;14.10;89.80
3268;DHT22;1646;52.450;13.326;2023-05-02T02:48:52;14.10;90.60
3268;DHT22;1646;52.450;13.326;2023-05-02T02:53:59;14.00;90.60
3268;DHT22;1646;52.450;13.326;2023-05-02T02:59:11;13.90;91.40
3268;DHT22;1646;52.450;13.326;2023-05-02T03:04:12;13.80;91.80
3268;DHT22;1646;52.450;13.326;2023-05-02T03:09:16;13.80;92.00
3268;DHT22;1646;52.450;13.326;2023-05-02T03:14:17;13.70;92.80
3268;DHT22;1646;52.450;13.326;2023-05-02T03:19:17;13.60;93.30
3268;DHT22;1646;52.450;13.326;2023-05-02T03:24:16;13.50;94.30
3268;DHT22;1646;52.450;13.326;2023-05-02T03:29:16;13.50;94.60
3268;DHT22;1646;52.450;13.326;2023-05-02T03:34:14;13.50;95.00
3268;DHT22;1646;52.450;13.326;2023-05-02T03:39:17;13.50;95.80
3268;DHT22;1646;52.450;13.326;2023-05-02T03:44:15;13.50;97.10
3268;DHT22;1646;52.450;13.326;2023-05-02T03:49:13;13.40;97.50
3268;DHT22;1646;52.450;13.326;2023-05-02T03:54:14;13.40;98.10
3268;DHT22;1646;52.450;13.326;2023-05-02T03:59:15;13.40;99.00
3268;DHT22;1646;52.450;13.326;2023-05-02T04:04:14;13.30;99.90
3268;DHT22;1646;52.450;13.326;2023-05-02T04:09:19;13.20;99.90
3268;DHT22;1646;52.450;13.326;2023-05-02T04:14:42;13.20;99.90
3268;DHT22;1646;52.450;13.326;2023-05-02T04:19:41;13.10;99.90
3268;DHT22;1646;52.450;13.326;2023-05-02T04:24:41;13.10;99.90
3268;DHT22;1646;52.450;13.326;2023-05-02T04:29:39;13.20;99.90
3268;DHT22;1646;52.450;13.326;2023-05-02T04:34:40;13.30;99.90
3268;DHT22;1646;52.450;13.326;2023-05-02T04:39:39;13.30;99.90
3268;DHT22;1646;52.450;13.326;2023-05-02T04:44:43;13.40;99.90
3268;DHT22;1646;52.450;13.326;2023-05-02T04:49:44;13.50;99.90
3268;DHT22;1646;52.450;13.326;2023-05-02T04:54:42;13.60;99.90
3268;DHT22;1646;52.450;13.326;2023-05-02T04:59:40;13.60;99.90
3268;DHT22;1646;52.450;13.326;2023-05-02T05:04:39;13.60;99.90
3268;DHT22;1646;52.450;13.326;2023-05-02T05:09:39;13.60;99.90
3268;DHT22;1646;52.450;13.326;2023-05-02T05:14:38;13.50;99.90
3268;DHT22;1646;52.450;13.326;2023-05-02T05:19:37;13.40;99.90
3268;DHT22;1646;52.450;13.326;2023-05-02T05:24:36;13.40;99.90
3268;DHT22;1646;52.450;13.326;2023-05-02T05:29:36;13.30;99.90
3268;DHT22;1646;52.450;13.326;2023-05-02T05:34:35;13.30;99.90
3268;DHT22;1646;52.450;13.326;2023-05-02T05:39:33;13.30;99.90
3268;DHT22;1646;52.450;13.326;2023-05-02T05:44:32;13.40;99.90
3268;DHT22;1646;52.450;13.326;2023-05-02T05:49:31;13.40;99.90
3268;DHT22;1646;52.450;13.326;2023-05-02T05:54:36;13.30;99.90
3268;DHT22;1646;52.450;13.326;2023-05-02T05:59:34;13.50;99.90
3268;DHT22;1646;52.450;13.326;2023-05-02T06:04:36;13.70;99.90
3268;DHT22;1646;52.450;13.326;2023-05-02T06:09:34;13.80;99.90
3268;DHT22;1646;52.450;13.326;2023-05-02T06:14:33;13.90;99.90
3268;DHT22;1646;52.450;13.326;2023-05-02T06:19:32;14.10;99.90
3268;DHT22;1646;52.450;13.326;2023-05-02T06:24:32;14.30;99.90
3268;DHT22;1646;52.450;13.326;2023-05-02T06:29:31;14.40;99.90
3268;DHT22;1646;52.450;13.326;2023-05-02T06:34:30;14.60;99.90
3268;DHT22;1646;52.450;13.326;2023-05-02T06:39:29;14.70;99.90
3268;DHT22;1646;52.450;13.326;2023-05-02T06:44:28;14.80;99.90
3268;DHT22;1646;52.450;13.326;2023-05-02T06:49:26;14.90;99.90
3268;DHT22;1646;52.450;13.326;2023-05-02T06:54:25;15.00;99.90
3268;DHT22;1646;52.450;13.326;2023-05-02T06:59:23;14.90;99.90
3268;DHT22;1646;52.450;13.326;2023-05-02T07:04:23;14.70;99.90
3268;DHT22;1646;52.450;13.326;2023-05-02T07:09:22;14.80;99.90
3268;DHT22;1646;52.450;13.326;2023-05-02T07:14:20;14.70;99.90
3268;DHT22;1646;52.450;13.326;2023-05-02T07:19:18;14.80;99.90
3268;DHT22;1646;52.450;13.326;2023-05-02T07:24:18;14.80;99.90
3268;DHT22;1646;52.450;13.326;2023-05-02T07:29:16;14.60;99.90
3268;DHT22;1646;52.450;13.326;2023-05-02T07:34:14;14.70;99.90
3268;DHT22;1646;52.450;13.326;2023-05-02T07:39:13;14.70;99.90
3268;DHT22;1646;52.450;13.326;2023-05-02T07:44:12;15.00;99.90
3268;DHT22;1646;52.450;13.326;2023-05-02T07:49:11;15.10;99.90
3268;DHT22;1646;52.450;13.326;2023-05-02T07:54:16;15.00;99.90
3268;DHT22;1646;52.450;13.326;2023-05-02T07:59:15;14.90;99.90
3268;DHT22;1646;52.450;13.326;2023-05-02T08:04:14;14.70;99.90
3268;DHT22;1646;52.450;13.326;2023-05-02T08:09:12;14.70;99.90
3268;DHT22;1646;52.450;13.326;2023-05-02T08:14:10;14.80;99.90
3268;DHT22;1646;52.450;13.326;2023-05-02T08:19:10;14.90;99.90
3268;DHT22;1646;52.450;13.326;2023-05-02T08:24:08;15.10;99.90
3268;DHT22;1646;52.450;13.326;2023-05-02T08:29:06;15.10;99.90
3268;DHT22;1646;52.450;13.326;2023-05-02T08:34:07;15.20;99.90
3268;DHT22;1646;52.450;13.326;2023-05-02T08:39:07;15.70;99.90
3268;DHT22;1646;52.450;13.326;2023-05-02T08:44:06;16.20;99.90
3268;DHT22;1646;52.450;13.326;2023-05-02T08:49:04;16.10;99.90
3268;DHT22;1646;52.450;13.326;2023-05-02T08:54:03;16.00;99.90
3268;DHT22;1646;52.450;13.326;2023-05-02T08:59:07;15.70;99.90
3268;DHT22;1646;52.450;13.326;2023-05-02T09:04:05;15.40;99.90
3268;DHT22;1646;52.450;13.326;2023-05-02T09:09:04;15.30;99.90
3268;DHT22;1646;52.450;13.326;2023-05-02T09:14:15;15.50;99.90
3268;DHT22;1646;52.450;13.326;2023-05-02T09:19:23;15.60;99.90
3268;DHT22;1646;52.450;13.326;2023-05-02T09:24:22;16.20;99.90
3268;DHT22;1646;52.450;13.326;2023-05-02T09:29:23;16.40;99.90
3268;DHT22;1646;52.450;13.326;2023-05-02T09:34:22;16.10;99.90
3268;DHT22;1646;52.450;13.326;2023-05-02T09:39:22;15.80;99.90
3268;DHT22;1646;52.450;13.326;2023-05-02T09:44:24;15.80;99.90
3268;DHT22;1646;52.450;13.326;2023-05-02T09:49:39;16.20;99.90
3268;DHT22;1646;52.450;13.326;2023-05-02T09:54:38;16.70;99.90
3268;DHT22;1646;52.450;13.326;2023-05-02T09:59:37;16.50;99.90
3268;DHT22;1646;52.450;13.326;2023-05-02T10:04:37;15.80;99.90
3268;DHT22;1646;52.450;13.326;2023-05-02T10:09:39;15.20;99.90
3268;DHT22;1646;52.450;13.326;2023-05-02T10:14:45;15.00;99.90
3268;DHT22;1646;52.450;13.326;2023-05-02T10:19:56;15.00;99.90
3268;DHT22;1646;52.450;13.326;2023-05-02T10:24:57;15.20;99.90
3268;DHT22;1646;52.450;13.326;2023-05-02T10:29:58;15.10;99.90
3268;DHT22;1646;52.450;13.326;2023-05-02T10:35:02;14.80;99.90
3268;DHT22;1646;52.450;13.326;2023-05-02T10:40:00;14.70;99.90
3268;DHT22;1646;52.450;13.326;2023-05-02T10:45:00;14.60;99.90
3268;DHT22;1646;52.450;13.326;2023-05-02T10:50:00;14.30;99.90
3268;DHT22;1646;52.450;13.326;2023-05-02T10:55:16;14.20;99.90
3268;DHT22;1646;52.450;13.326;2023-05-02T11:00:23;13.90;99.90
3268;DHT22;1646;52.450;13.326;2023-05-02T11:05:22;13.60;99.90
3268;DHT22;1646;52.450;13.326;2023-05-02T11:10:24;13.20;99.90
3268;DHT22;1646;52.450;13.326;2023-05-02T11:15:55;13.00;99.90
3268;DHT22;1646;52.450;13.326;2023-05-02T11:21:23;12.90;99.90
3268;DHT22;1646;52.450;13.326;2023-05-02T11:26:23;12.80;99.90
3268;DHT22;1646;52.450;13.326;2023-05-02T11:31:53;12.80;99.90
3268;DHT22;1646;52.450;13.326;2023-05-02T11:36:51;13.00;99.90
3268;DHT22;1646;52.450;13.326;2023-05-02T11:41:50;13.60;99.90
3268;DHT22;1646;52.450;13.326;2023-05-02T11:46:49;13.70;99.90
3268;DHT22;1646;52.450;13.326;2023-05-02T11:51:48;14.00;99.90
3268;DHT22;1646;52.450;13.326;2023-05-02T11:56:46;14.30;99.90
3268;DHT22;1646;52.450;13.326;2023-05-02T12:01:48;14.20;99.90
3268;DHT22;1646;52.450;13.326;2023-05-02T12:06:56;14.10;99.90
3268;DHT22;1646;52.450;13.326;2023-05-02T12:11:55;13.70;99.90
3268;DHT22;1646;52.450;13.326;2023-05-02T12:16:53;13.30;99.90
3268;DHT22;1646;52.450;13.326;2023-05-02T12:21:52;13.10;99.90
3268;DHT22;1646;52.450;13.326;2023-05-02T12:27:08;13.20;99.90
3268;DHT22;1646;52.450;13.326;2023-05-02T12:32:06;13.40;99.90
3268;DHT22;1646;52.450;13.326;2023-05-02T12:37:05;13.80;99.90
3268;DHT22;1646;52.450;13.326;2023-05-02T12:42:12;14.30;99.90
3268;DHT22;1646;52.450;13.326;2023-05-02T12:47:12;14.40;99.90
3268;DHT22;1646;52.450;13.326;2023-05-02T12:52:10;14.60;99.90
3268;DHT22;1646;52.450;13.326;2023-05-02T12:57:15;15.00;99.90
3268;DHT22;1646;52.450;13.326;2023-05-02T13:02:18;15.00;99.90
3268;DHT22;1646;52.450;13.326;2023-05-02T13:07:17;15.40;99.90
3268;DHT22;1646;52.450;13.326;2023-05-02T13:12:17;16.20;99.90
3268;DHT22;1646;52.450;13.326;2023-05-02T13:17:15;16.70;99.90
3268;DHT22;1646;52.450;13.326;2023-05-02T13:22:13;16.80;99.90
3268;DHT22;1646;52.450;13.326;2023-05-02T13:27:12;16.00;99.90
3268;DHT22;1646;52.450;13.326;2023-05-02T13:32:12;15.10;99.90
3268;DHT22;1646;52.450;13.326;2023-05-02T13:37:10;14.70;99.90
3268;DHT22;1646;52.450;13.326;2023-05-02T13:42:08;14.70;99.90
3268;DHT22;1646;52.450;13.326;2023-05-02T13:47:07;14.90;99.90
3268;DHT22;1646;52.450;13.326;2023-05-02T13:52:06;15.00;99.90
3268;DHT22;1646;52.450;13.326;2023-05-02T13:57:05;15.10;99.90
3268;DHT22;1646;52.450;13.326;2023-05-02T14:02:03;15.10;99.90
3268;DHT22;1646;52.450;13.326;2023-05-02T14:07:02;15.10;99.90
3268;DHT22;1646;52.450;13.326;2023-05-02T14:12:02;14.90;99.90
3268;DHT22;1646;52.450;13.326;2023-05-02T14:17:00;15.30;99.90
3268;DHT22;1646;52.450;13.326;2023-05-02T14:21:59;15.50;99.90
3268;DHT22;1646;52.450;13.326;2023-05-02T14:26:57;15.30;99.90
3268;DHT22;1646;52.450;13.326;2023-05-02T14:31:57;15.00;99.90
3268;DHT22;1646;52.450;13.326;2023-05-02T14:36:55;14.80;99.90
3268;DHT22;1646;52.450;13.326;2023-05-02T14:41:53;14.50;99.90
3268;DHT22;1646;52.450;13.326;2023-05-02T14:46:53;14.20;99.90
3268;DHT22;1646;52.450;13.326;2023-05-02T14:51:53;13.90;99.90
3268;DHT22;1646;52.450;13.326;2023-05-02T14:56:54;13.90;99.90
3268;DHT22;1646;52.450;13.326;2023-05-02T15:01:52;13.80;99.90
3268;DHT22;1646;52.450;13.326;2023-05-02T15:06:52;13.70;99.90
3268;DHT22;1646;52.450;13.326;2023-05-02T15:11:51;13.50;99.90
3268;DHT22;1646;52.450;13.326;2023-05-02T15:16:50;13.40;99.90
3268;DHT22;1646;52.450;13.326;2023-05-02T15:21:48;13.40;99.90
3268;DHT22;1646;52.450;13.326;2023-05-02T15:26:50;13.10;99.90
3268;DHT22;1646;52.450;13.326;2023-05-02T15:31:48;12.90;99.90
3268;DHT22;1646;52.450;13.326;2023-05-02T15:36:47;12.70;99.90
3268;DHT22;1646;52.450;13.326;2023-05-02T15:41:45;12.60;99.90
3268;DHT22;1646;52.450;13.326;2023-05-02T15:46:45;12.80;99.90
3268;DHT22;1646;52.450;13.326;2023-05-02T15:51:44;13.20;99.90
3268;DHT22;1646;52.450;13.326;2023-05-02T15:56:42;13.50;99.90
3268;DHT22;1646;52.450;13.326;2023-05-02T16:01:40;13.70;99.90
3268;DHT22;1646;52.450;13.326;2023-05-02T16:06:40;13.60;99.90
3268;DHT22;1646;52.450;13.326;2023-05-02T16:11:38;13.20;99.90
3268;DHT22;1646;52.450;13.326;2023-05-02T16:16:36;13.40;99.90
3268;DHT22;1646;52.450;13.326;2023-05-02T16:21:35;13.90;99.90
3268;DHT22;1646;52.450;13.326;2023-05-02T16:26:34;13.90;99.90
3268;DHT22;1646;52.450;13.326;2023-05-02T16:31:32;14.00;99.90
3268;DHT22;1646;52.450;13.326;2023-05-02T16:36:31;14.10;99.90
3268;DHT22;1646;52.450;13.326;2023-05-02T16:41:29;14.00;99.90
3268;DHT22;1646;52.450;13.326;2023-05-02T16:46:30;14.30;99.90
3268;DHT22;1646;52.450;13.326;2023-05-02T16:51:28;14.60;99.90
3268;DHT22;1646;52.450;13.326;2023-05-02T16:56:27;14.90;99.90
3268;DHT22;1646;52.450;13.326;2023-05-02T17:01:26;15.00;99.30
3268;DHT22;1646;52.450;13.326;2023-05-02T17:06:26;14.80;98.90
3268;DHT22;1646;52.450;13.326;2023-05-02T17:11:24;14.40;98.40
3268;DHT22;1646;52.450;13.326;2023-05-02T17:16:22;14.20;98.80
3268;DHT22;1646;52.450;13.326;2023-05-02T17:21:21;13.80;98.80
3268;DHT22;1646;52.450;13.326;2023-05-02T17:26:20;13.30;98.80
3268;DHT22;1646;52.450;13.326;2023-05-02T17:31:19;13.20;99.80
3268;DHT22;1646;52.450;13.326;2023-05-02T17:36:17;13.20;99.90
3268;DHT22;1646;52.450;13.326;2023-05-02T17:41:15;13.30;99.70
3268;DHT22;1646;52.450;13.326;2023-05-02T17:46:15;13.30;99.60
3268;DHT22;1646;52.450;13.326;2023-05-02T17:51:13;13.40;99.90
3268;DHT22;1646;52.450;13.326;2023-05-02T17:56:12;13.40;99.50
3268;DHT22;1646;52.450;13.326;2023-05-02T18:01:12;13.20;99.50
3268;DHT22;1646;52.450;13.326;2023-05-02T18:06:15;13.10;99.60
3268;DHT22;1646;52.450;13.326;2023-05-02T18:11:14;13.10;99.90
3268;DHT22;1646;52.450;13.326;2023-05-02T18:16:13;13.10;99.90
3268;DHT22;1646;52.450;13.326;2023-05-02T18:21:20;13.10;99.90
3268;DHT22;1646;52.450;13.326;2023-05-02T18:26:19;13.10;99.90
3268;DHT22;1646;52.450;13.326;2023-05-02T18:31:18;13.00;99.80
3268;DHT22;1646;52.450;13.326;2023-05-02T18:36:24;13.00;99.90
3268;DHT22;1646;52.450;13.326;2023-05-02T18:41:23;13.00;99.90
3268;DHT22;1646;52.450;13.326;2023-05-02T18:46:21;13.00;99.90
3268;DHT22;1646;52.450;13.326;2023-05-02T18:51:20;13.00;99.90
3268;DHT22;1646;52.450;13.326;2023-05-02T18:56:19;13.00;99.90
3268;DHT22;1646;52.450;13.326;2023-05-02T19:01:18;13.10;99.70
3268;DHT22;1646;52.450;13.326;2023-05-02T19:06:18;13.00;99.90
3268;DHT22;1646;52.450;13.326;2023-05-02T19:11:16;13.00;99.70
3268;DHT22;1646;52.450;13.326;2023-05-02T19:16:16;13.00;99.50
3268;DHT22;1646;52.450;13.326;2023-05-02T19:21:17;12.90;99.90
3268;DHT22;1646;52.450;13.326;2023-05-02T19:26:16;13.00;99.90
3268;DHT22;1646;52.450;13.326;2023-05-02T19:31:17;13.00;99.90
3268;DHT22;1646;52.450;13.326;2023-05-02T19:36:16;12.90;99.90
3268;DHT22;1646;52.450;13.326;2023-05-02T19:41:15;12.90;99.70
3268;DHT22;1646;52.450;13.326;2023-05-02T19:46:13;12.70;99.60
3268;DHT22;1646;52.450;13.326;2023-05-02T19:51:13;12.60;99.90
3268;DHT22;1646;52.450;13.326;2023-05-02T19:56:11;12.50;99.90
3268;DHT22;1646;52.450;13.326;2023-05-02T20:01:09;12.50;99.90
3268;DHT22;1646;52.450;13.326;2023-05-02T20:06:08;12.50;99.90
3268;DHT22;1646;52.450;13.326;2023-05-02T20:11:07;12.40;99.90
3268;DHT22;1646;52.450;13.326;2023-05-02T20:16:05;12.30;99.90
3268;DHT22;1646;52.450;13.326;2023-05-02T20:21:04;12.40;99.90
3268;DHT22;1646;52.450;13.326;2023-05-02T20:26:02;12.20;99.90
3268;DHT22;1646;52.450;13.326;2023-05-02T20:31:02;12.20;99.90
3268;DHT22;1646;52.450;13.326;2023-05-02T20:36:01;12.10;99.90
3268;DHT22;1646;52.450;13.326;2023-05-02T20:40:59;12.00;99.90
3268;DHT22;1646;52.450;13.326;2023-05-02T20:46:08;12.00;99.90
3268;DHT22;1646;52.450;13.326;2023-05-02T20:51:07;12.00;99.90
3268;DHT22;1646;52.450;13.326;2023-05-02T20:56:06;11.90;99.90
3268;DHT22;1646;52.450;13.326;2023-05-02T21:01:04;11.90;99.90
3268;DHT22;1646;52.450;13.326;2023-05-02T21:06:04;11.80;99.90
3268;DHT22;1646;52.450;13.326;2023-05-02T21:11:10;11.70;99.90
3268;DHT22;1646;52.450;13.326;2023-05-02T21:16:13;11.60;99.90
3268;DHT22;1646;52.450;13.326;2023-05-02T21:21:13;11.50;99.90
3268;DHT22;1646;52.450;13.326;2023-05-02T21:26:11;11.60;99.90
3268;DHT22;1646;52.450;13.326;2023-05-02T21:31:10;11.60;99.90
3268;DHT22;1646;52.450;13.326;2023-05-02T21:36:08;11.60;99.90
3268;DHT22;1646;52.450;13.326;2023-05-02T21:41:08;11.60;99.90
3268;DHT22;1646;52.450;13.326;2023-05-02T21:46:08;11.50;99.90
3268;DHT22;1646;52.450;13.326;2023-05-02T21:51:07;11.60;99.90
3268;DHT22;1646;52.450;13.326;2023-05-02T21:56:08;11.50;99.90
3268;DHT22;1646;52.450;13.326;2023-05-02T22:01:06;11.50;99.90
3268;DHT22;1646;52.450;13.326;2023-05-02T22:06:05;11.30;99.90
3268;DHT22;1646;52.450;13.326;2023-05-02T22:11:05;11.20;99.90
3268;DHT22;1646;52.450;13.326;2023-05-02T22:16:06;11.10;99.90
3268;DHT22;1646;52.450;13.326;2023-05-02T22:21:05;10.90;99.90
3268;DHT22;1646;52.450;13.326;2023-05-02T22:26:04;10.90;99.90
3268;DHT22;1646;52.450;13.326;2023-05-02T22:31:02;10.90;99.90
3268;DHT22;1646;52.450;13.326;2023-05-02T22:36:02;10.90;99.90
3268;DHT22;1646;52.450;13.326;2023-05-02T22:41:00;10.80;99.90
3268;DHT22;1646;52.450;13.326;2023-05-02T22:45:59;10.70;99.90
3268;DHT22;1646;52.450;13.326;2023-05-02T22:50:58;10.70;99.90
3268;DHT22;1646;52.450;13.326;2023-05-02T22:55:57;10.70;99.90
3268;DHT22;1646;52.450;13.326;2023-05-02T23:00:56;10.60;99.90
3268;DHT22;1646;52.450;13.326;2023-05-02T23:05:54;10.70;99.90
3268;DHT22;1646;52.450;13.326;2023-05-02T23:10:52;10.60;99.90
3268;DHT22;1646;52.450;13.326;2023-05-02T23:15:53;10.60;99.90
3268;DHT22;1646;52.450;13.326;2023-05-02T23:20:51;10.60;99.90
3268;DHT22;1646;52.450;13.326;2023-05-02T23:25:49;10.50;99.90
3268;DHT22;1646;52.450;13.326;2023-05-02T23:30:48;10.60;99.90
3268;DHT22;1646;52.450;13.326;2023-05-02T23:35:47;10.70;99.90
3268;DHT22;1646;52.450;13.326;2023-05-02T23:40:46;10.60;99.90
3268;DHT22;1646;52.450;13.326;2023-05-02T23:45:44;10.50;99.90
3268;DHT22;1646;52.450;13.326;2023-05-02T23:50:42;10.50;99.90
3268;DHT22;1646;52.450;13.326;2023-05-02T23:55:42;10.60;99.90
